createdAt,value
2018-04-13T00:01:33.218Z,54.80
2018-04-13T00:04:03.088Z,54.70
2018-04-13T00:06:33.415Z,54.30
2018-04-13T00:09:02.495Z,54.60
2018-04-13T00:11:32.373Z,54.50
2018-04-13T00:14:01.478Z,54.40
2018-04-13T00:16:30.553Z,54.50
2018-04-13T00:18:59.648Z,54.40
2018-04-13T00:21:29.493Z,54.60
2018-04-13T00:23:58.562Z,54.50
2018-04-13T00:26:27.668Z,54.50
2018-04-13T00:28:57.201Z,54.50
2018-04-13T00:31:26.303Z,54.60
2018-04-13T00:33:55.370Z,54.50
2018-04-13T00:36:24.442Z,54.50
2018-04-13T00:38:54.279Z,54.40
2018-04-13T00:41:24.112Z,54.60
2018-04-13T00:43:54.012Z,54.60
2018-04-13T00:46:23.095Z,54.60
2018-04-13T00:48:52.165Z,54.80
2018-04-13T00:51:22.224Z,54.90
2018-04-13T00:53:51.332Z,54.80
2018-04-13T00:56:20.531Z,55.10
2018-04-13T00:58:49.632Z,55.00
2018-04-13T01:01:18.738Z,55.10
2018-04-13T01:03:48.600Z,55.00
2018-04-13T01:06:17.712Z,55.00
2018-04-13T01:08:46.843Z,55.00
2018-04-13T01:11:16.740Z,55.30
2018-04-13T01:13:45.826Z,55.10
2018-04-13T01:16:14.946Z,55.10
2018-04-13T01:18:44.054Z,55.10
2018-04-13T01:21:13.179Z,55.10
2018-04-13T01:23:42.340Z,55.30
2018-04-13T01:26:11.441Z,55.20
2018-04-13T01:28:40.570Z,55.30
2018-04-13T01:31:10.411Z,55.70
2018-04-13T01:33:40.279Z,55.20
2018-04-13T01:36:09.385Z,55.20
2018-04-13T01:38:38.470Z,55.10
2018-04-13T01:41:07.617Z,55.20
2018-04-13T01:43:38.248Z,55.10
2018-04-13T01:46:07.325Z,55.10
2018-04-13T01:48:37.163Z,54.80
2018-04-13T01:51:07.020Z,54.80
2018-04-13T01:53:36.099Z,54.80
2018-04-13T01:56:05.928Z,54.70
2018-04-13T01:58:35.002Z,54.70
2018-04-13T02:01:04.106Z,54.70
2018-04-13T02:03:33.216Z,54.70
2018-04-13T02:06:02.330Z,54.70
2018-04-13T02:08:31.436Z,54.60
2018-04-13T02:11:00.625Z,54.70
2018-04-13T02:13:29.806Z,54.70
2018-04-13T02:15:59.640Z,54.50
2018-04-13T02:18:28.747Z,54.50
2018-04-13T02:20:57.843Z,54.60
2018-04-13T02:23:27.722Z,54.70
2018-04-13T02:25:56.831Z,54.70
2018-04-13T02:28:25.907Z,54.70
2018-04-13T02:30:55.017Z,54.50
2018-04-13T02:33:24.092Z,54.70
2018-04-13T02:35:53.203Z,54.60
2018-04-13T02:38:22.315Z,54.70
2018-04-13T02:40:51.420Z,54.60
2018-04-13T02:43:20.525Z,54.70
2018-04-13T02:45:49.598Z,54.50
2018-04-13T02:48:18.682Z,54.50
2018-04-13T02:50:47.783Z,54.50
2018-04-13T02:53:17.657Z,54.60
2018-04-13T02:55:47.147Z,54.50
2018-04-13T02:58:16.256Z,54.50
2018-04-13T03:00:45.405Z,54.50
2018-04-13T03:03:14.512Z,54.60
2018-04-13T03:05:43.593Z,54.60
2018-04-13T03:08:12.668Z,54.70
2018-04-13T03:10:41.801Z,54.70
2018-04-13T03:13:10.886Z,54.70
2018-04-13T03:15:39.986Z,54.80
2018-04-13T03:18:09.088Z,54.80
2018-04-13T03:20:38.196Z,54.90
2018-04-13T03:23:07.318Z,55.00
2018-04-13T03:25:36.390Z,54.90
2018-04-13T03:28:05.470Z,55.00
2018-04-13T03:30:35.336Z,55.00
2018-04-13T03:33:04.435Z,55.00
2018-04-13T03:35:33.542Z,54.90
2018-04-13T03:38:02.652Z,54.80
2018-04-13T03:40:31.792Z,54.80
2018-04-13T03:43:00.903Z,54.70
2018-04-13T03:45:29.975Z,54.70
2018-04-13T03:47:59.039Z,54.80
2018-04-13T03:50:28.143Z,54.70
2018-04-13T03:52:57.235Z,54.70
2018-04-13T03:55:26.347Z,54.70
2018-04-13T03:57:55.424Z,55.40
2018-04-13T04:00:24.525Z,55.20
2018-04-13T04:02:53.594Z,55.20
2018-04-13T04:05:22.701Z,55.60
2018-04-13T04:07:51.850Z,55.00
2018-04-13T04:10:21.679Z,55.10
2018-04-13T04:12:50.764Z,55.00
2018-04-13T04:15:19.851Z,54.90
2018-04-13T04:17:48.962Z,54.90
2018-04-13T04:20:35.908Z,54.90
2018-04-13T04:23:23.750Z,54.90
2018-04-13T04:26:11.495Z,55.10
2018-04-13T04:28:40.588Z,55.20
2018-04-13T04:31:10.407Z,55.10
2018-04-13T04:33:39.504Z,55.10
2018-04-13T04:36:08.578Z,55.00
2018-04-13T04:38:38.459Z,54.90
2018-04-13T04:41:07.556Z,54.90
2018-04-13T04:43:36.672Z,54.80
2018-04-13T04:46:05.749Z,54.60
2018-04-13T04:48:35.624Z,54.60
2018-04-13T04:51:04.703Z,54.50
2018-04-13T04:53:33.832Z,54.60
2018-04-13T04:56:02.911Z,54.60
2018-04-13T04:58:32.820Z,54.50
2018-04-13T05:01:01.895Z,54.50
2018-04-13T05:03:31.045Z,54.40
2018-04-13T05:06:00.882Z,54.10
2018-04-13T05:08:30.752Z,54.20
2018-04-13T05:10:59.926Z,54.10
2018-04-13T05:13:29.796Z,54.30
2018-04-13T05:15:58.869Z,54.20
2018-04-13T05:18:28.738Z,54.40
2018-04-13T05:20:57.872Z,54.40
2018-04-13T05:23:26.955Z,54.40
2018-04-13T05:25:56.050Z,54.60
2018-04-13T05:28:25.175Z,54.60
2018-04-13T05:30:54.281Z,54.60
2018-04-13T05:33:23.384Z,54.80
2018-04-13T05:35:52.528Z,54.70
2018-04-13T05:38:21.628Z,54.60
2018-04-13T05:40:50.739Z,54.50
2018-04-13T05:43:19.848Z,54.60
2018-04-13T05:45:48.989Z,54.60
2018-04-13T05:48:18.092Z,54.50
2018-04-13T05:50:47.208Z,54.40
2018-04-13T05:53:16.307Z,54.30
2018-04-13T05:55:45.436Z,54.10
2018-04-13T05:58:14.535Z,54.10
2018-04-13T06:00:43.620Z,53.70
2018-04-13T06:03:13.480Z,53.70
2018-04-13T06:05:42.931Z,53.70
2018-04-13T06:08:12.033Z,53.70
2018-04-13T06:10:41.913Z,53.70
2018-04-13T06:13:11.000Z,53.70
2018-04-13T06:15:40.095Z,53.80
2018-04-13T06:18:09.243Z,54.10
2018-04-13T06:20:38.310Z,54.50
2018-04-13T06:23:07.473Z,55.80
2018-04-13T06:25:36.566Z,56.20
2018-04-13T06:28:05.639Z,57.10
2018-04-13T06:30:34.755Z,58.40
2018-04-13T06:33:03.937Z,60.60
2018-04-13T06:35:34.563Z,61.70
2018-04-13T06:38:03.649Z,61.80
2018-04-13T06:40:32.824Z,62.60
2018-04-13T06:43:01.956Z,63.40
2018-04-13T06:45:31.120Z,65.30
2018-04-13T06:48:00.971Z,65.00
2018-04-13T06:50:31.065Z,64.70
2018-04-13T06:53:00.184Z,64.70
2018-04-13T06:55:29.462Z,64.40
2018-04-13T06:57:58.608Z,64.60
2018-04-13T07:00:27.786Z,65.20
2018-04-13T07:02:56.900Z,66.30
2018-04-13T07:05:25.982Z,65.00
2018-04-13T07:07:55.120Z,65.00
2018-04-13T07:10:24.202Z,65.30
2018-04-13T07:12:53.303Z,65.30
2018-04-13T07:15:23.220Z,65.40
2018-04-13T07:17:53.152Z,64.90
2018-04-13T07:20:22.999Z,65.50
2018-04-13T07:22:52.118Z,65.50
2018-04-13T07:25:21.248Z,65.80
2018-04-13T07:27:50.359Z,66.50
2018-04-13T07:30:19.464Z,66.50
2018-04-13T07:32:48.550Z,66.60
2018-04-13T07:35:17.649Z,66.60
2018-04-13T07:37:47.951Z,69.20
2018-04-13T07:40:17.100Z,69.20
2018-04-13T07:42:47.102Z,69.90
2018-04-13T07:45:16.894Z,69.90
2018-04-13T07:47:45.983Z,69.90
2018-04-13T07:50:15.130Z,70.20
2018-04-13T07:52:44.252Z,71.20
2018-04-13T07:55:13.374Z,72.10
2018-04-13T07:57:42.525Z,73.20
2018-04-13T08:00:11.636Z,73.60
2018-04-13T08:02:40.807Z,73.80
2018-04-13T08:05:10.701Z,73.20
2018-04-13T08:07:39.870Z,73.20
2018-04-13T08:10:09.748Z,74.10
2018-04-13T08:12:39.602Z,76.10
2018-04-13T08:15:08.712Z,76.00
2018-04-13T08:17:37.824Z,75.90
2018-04-13T08:20:06.903Z,77.60
2018-04-13T08:22:35.980Z,78.80
2018-04-13T08:25:05.092Z,79.80
2018-04-13T08:27:34.171Z,80.20
2018-04-13T08:30:03.285Z,79.70
2018-04-13T08:32:33.239Z,77.60
2018-04-13T08:35:02.354Z,77.60
2018-04-13T08:37:31.444Z,76.40
2018-04-13T08:40:01.322Z,73.50
2018-04-13T08:42:30.412Z,73.50
2018-04-13T08:44:59.556Z,73.40
2018-04-13T08:47:28.703Z,73.40
2018-04-13T08:49:58.584Z,72.60
2018-04-13T08:52:27.772Z,72.60
2018-04-13T08:54:56.936Z,74.10
2018-04-13T08:57:26.052Z,75.80
2018-04-13T08:59:55.167Z,74.90
2018-04-13T09:02:24.322Z,73.40
2018-04-13T09:04:53.420Z,72.70
2018-04-13T09:07:22.590Z,72.10
2018-04-13T09:09:51.681Z,72.00
2018-04-13T09:12:20.792Z,71.60
2018-04-13T09:14:49.916Z,70.80
2018-04-13T09:17:19.012Z,68.30
2018-04-13T09:19:48.854Z,66.90
2018-04-13T09:22:17.970Z,66.10
2018-04-13T09:24:47.044Z,64.50
2018-04-13T09:27:16.198Z,63.40
2018-04-13T09:29:45.308Z,62.80
2018-04-13T09:32:14.421Z,62.60
2018-04-13T09:34:43.497Z,60.90
2018-04-13T09:37:12.660Z,61.20
2018-04-13T09:39:42.537Z,60.30
2018-04-13T09:42:11.635Z,60.20
2018-04-13T09:44:40.741Z,60.00
2018-04-13T09:50:10.208Z,59.70
2018-04-13T09:52:39.321Z,60.30
2018-04-13T09:55:08.433Z,60.80
2018-04-13T09:57:37.584Z,61.80
2018-04-13T10:00:07.431Z,62.00
2018-04-13T10:02:38.128Z,61.40
2018-04-13T10:05:12.949Z,61.30
2018-04-13T10:07:42.148Z,62.20
2018-04-13T10:10:11.257Z,62.60
2018-04-13T10:12:40.639Z,63.30
2018-04-13T10:15:09.783Z,63.60
2018-04-13T10:17:38.888Z,64.00
2018-04-13T10:20:07.967Z,64.60
2018-04-13T10:22:37.369Z,65.80
2018-04-13T10:25:06.472Z,66.10
2018-04-13T10:27:35.550Z,65.90
2018-04-13T10:30:04.683Z,65.90
2018-04-13T10:32:33.762Z,64.80
2018-04-13T10:35:02.859Z,65.00
2018-04-13T10:37:33.062Z,65.70
2018-04-13T10:40:02.144Z,65.70
2018-04-13T10:42:31.252Z,65.70
2018-04-13T10:45:00.350Z,65.60
2018-04-13T10:47:29.457Z,65.00
2018-04-13T10:49:58.608Z,65.40
2018-04-13T10:52:27.714Z,65.40
2018-04-13T10:54:56.829Z,65.00
2018-04-13T10:57:25.902Z,66.00
2018-04-13T10:59:54.975Z,67.10
2018-04-13T11:02:24.104Z,66.70
2018-04-13T11:04:53.950Z,67.70
2018-04-13T11:07:23.065Z,67.70
2018-04-13T11:09:52.176Z,67.60
2018-04-13T11:12:21.287Z,67.70
2018-04-13T11:14:50.367Z,67.60
2018-04-13T11:17:20.207Z,65.00
2018-04-13T11:19:50.106Z,63.50
2018-04-13T11:22:19.206Z,63.40
2018-04-13T11:24:48.395Z,62.70
2018-04-13T11:27:17.477Z,61.70
2018-04-13T11:29:46.689Z,60.70
2018-04-13T11:32:15.876Z,59.20
2018-04-13T11:34:45.720Z,59.50
2018-04-13T11:37:14.833Z,59.40
2018-04-13T11:39:43.915Z,57.80
2018-04-13T11:42:13.020Z,58.00
2018-04-13T11:44:42.133Z,57.10
2018-04-13T11:47:11.248Z,57.80
2018-04-13T11:49:41.099Z,54.30
2018-04-13T11:52:10.171Z,54.30
2018-04-13T11:54:39.285Z,54.20
2018-04-13T11:57:08.407Z,53.40
2018-04-13T11:59:38.335Z,53.70
2018-04-13T12:02:08.182Z,52.90
2018-04-13T12:04:38.057Z,52.50
2018-04-13T12:07:07.142Z,52.50
2018-04-13T12:09:36.283Z,52.30
2018-04-13T12:12:05.426Z,51.30
2018-04-13T12:14:34.543Z,51.40
2018-04-13T12:17:04.382Z,51.60
2018-04-13T12:19:33.490Z,51.40
2018-04-13T12:22:02.650Z,51.80
2018-04-13T12:27:07.229Z,52.50
2018-04-13T12:29:36.315Z,52.30
2018-04-13T12:32:05.429Z,52.30
2018-04-13T12:34:34.507Z,51.70
2018-04-13T12:37:03.692Z,50.90
2018-04-13T12:39:32.777Z,50.80
2018-04-13T12:42:01.884Z,51.30
2018-04-13T12:44:30.968Z,51.60
2018-04-13T12:47:00.076Z,52.20
2018-04-13T12:49:29.336Z,52.10
2018-04-13T12:51:59.280Z,51.00
2018-04-13T12:54:28.626Z,51.60
2018-04-13T12:56:57.514Z,50.20
2018-04-13T12:59:27.387Z,49.60
2018-04-13T13:01:56.500Z,49.50
2018-04-13T13:04:25.642Z,48.20
2018-04-13T13:06:54.748Z,47.70
2018-04-13T13:09:23.822Z,48.00
2018-04-13T13:11:52.921Z,47.50
2018-04-13T13:14:22.003Z,48.10
2018-04-13T13:16:51.888Z,47.90
2018-04-13T13:19:20.954Z,47.90
2018-04-13T13:21:50.873Z,46.90
2018-04-13T13:24:20.859Z,47.70
2018-04-13T13:26:49.928Z,47.70
2018-04-13T13:29:19.001Z,47.60
2018-04-13T13:31:48.100Z,47.90
2018-04-13T13:34:17.208Z,48.00
2018-04-13T13:36:46.317Z,47.00
2018-04-13T13:39:15.432Z,46.50
2018-04-13T13:41:44.576Z,45.90
2018-04-13T13:44:14.505Z,46.50
2018-04-13T13:46:44.347Z,45.70
2018-04-13T13:49:14.035Z,45.70
2018-04-13T13:51:43.150Z,44.70
2018-04-13T13:54:12.248Z,45.50
2018-04-13T13:56:41.339Z,45.20
2018-04-13T13:59:10.471Z,45.00
2018-04-13T14:01:39.609Z,44.80
2018-04-13T14:04:09.481Z,44.10
2018-04-13T14:06:38.554Z,44.10
2018-04-13T14:09:08.420Z,43.60
2018-04-13T14:11:37.525Z,43.50
2018-04-13T14:14:06.634Z,42.90
2018-04-13T14:16:35.749Z,41.70
2018-04-13T14:19:04.865Z,41.50
2018-04-13T14:21:34.307Z,40.90
2018-04-13T14:24:03.396Z,40.60
2018-04-13T14:26:32.464Z,41.20
2018-04-13T14:29:02.333Z,40.80
2018-04-13T14:31:31.428Z,40.80
2018-04-13T14:34:00.524Z,40.70
2018-04-13T14:36:29.607Z,41.00
2018-04-13T14:38:58.766Z,41.00
2018-04-13T14:41:27.944Z,40.60
2018-04-13T14:43:57.786Z,40.90
2018-04-13T14:46:26.859Z,40.70
2018-04-13T14:48:56.725Z,41.00
2018-04-13T14:51:25.803Z,40.90
2018-04-13T14:53:54.973Z,40.70
2018-04-13T14:56:24.083Z,41.70
2018-04-13T14:58:53.179Z,40.70
2018-04-13T15:01:22.044Z,40.70
2018-04-13T15:03:51.879Z,39.90
2018-04-13T15:06:21.773Z,39.70
2018-04-13T15:08:50.941Z,39.70
2018-04-13T15:11:20.045Z,40.10
2018-04-13T15:13:49.115Z,39.70
2018-04-13T15:16:18.200Z,39.40
2018-04-13T15:18:47.292Z,39.40
2018-04-13T15:21:16.453Z,39.50
2018-04-13T15:23:45.599Z,40.20
2018-04-13T15:26:14.728Z,41.00
2018-04-13T15:28:44.478Z,41.50
2018-04-13T15:31:13.599Z,41.70
2018-04-13T15:36:43.488Z,42.20
2018-04-13T15:39:13.437Z,42.60
2018-04-13T15:41:42.563Z,42.50
2018-04-13T15:44:11.660Z,43.00
2018-04-13T15:46:40.808Z,42.70
2018-04-13T15:49:09.888Z,43.20
2018-04-13T15:51:38.992Z,42.90
2018-04-13T15:54:08.103Z,42.70
2018-04-13T15:56:37.199Z,42.20
2018-04-13T15:59:07.073Z,42.20
2018-04-13T16:01:36.214Z,42.20
2018-04-13T16:04:05.252Z,42.80
2018-04-13T16:06:35.091Z,43.70
2018-04-13T16:09:04.176Z,43.70
2018-04-13T16:11:34.008Z,43.50
2018-04-13T16:14:03.972Z,43.30
2018-04-13T16:16:33.080Z,43.30
2018-04-13T16:19:02.187Z,43.80
2018-04-13T16:21:31.252Z,45.40
2018-04-13T16:24:00.372Z,45.60
2018-04-13T16:26:29.465Z,46.40
2018-04-13T16:28:58.612Z,47.00
2018-04-13T16:31:28.468Z,47.00
2018-04-13T16:33:57.536Z,47.00
2018-04-13T16:36:26.626Z,48.40
2018-04-13T16:38:55.728Z,48.80
2018-04-13T16:41:24.864Z,48.70
2018-04-13T16:43:54.742Z,48.80
2018-04-13T16:46:23.835Z,48.80
2018-04-13T16:48:52.908Z,49.30
2018-04-13T16:51:21.987Z,49.10
2018-04-13T16:53:51.063Z,49.00
2018-04-13T16:56:20.126Z,49.30
2018-04-13T16:58:49.196Z,49.50
2018-04-13T17:01:18.294Z,49.60
2018-04-13T17:03:47.359Z,49.60
2018-04-13T17:06:16.459Z,49.60
2018-04-13T17:08:45.518Z,49.50
2018-04-13T17:11:14.648Z,50.10
2018-04-13T17:13:43.735Z,50.20
2018-04-13T17:16:12.885Z,50.30
2018-04-13T17:18:42.032Z,50.50
2018-04-13T17:21:11.912Z,50.60
2018-04-13T17:23:41.463Z,50.60
2018-04-13T17:26:11.065Z,50.90
2018-04-13T17:28:40.143Z,51.20
2018-04-13T17:31:09.215Z,51.40
2018-04-13T17:33:39.435Z,51.80
2018-04-13T17:36:08.516Z,52.40
2018-04-13T17:38:37.591Z,52.60
2018-04-13T17:41:07.628Z,53.40
2018-04-13T17:43:37.516Z,54.70
2018-04-13T17:46:07.472Z,55.40
2018-04-13T17:48:36.572Z,55.40
2018-04-13T17:51:05.658Z,57.80
2018-04-13T17:53:34.796Z,59.80
2018-04-13T17:56:03.914Z,62.20
2018-04-13T18:01:31.532Z,64.30
2018-04-13T18:04:01.733Z,65.90
2018-04-13T18:06:30.850Z,65.80
2018-04-13T18:08:59.955Z,66.40
2018-04-13T18:11:29.037Z,66.20
2018-04-13T18:13:58.142Z,66.10
2018-04-13T18:16:27.247Z,66.60
2018-04-13T18:18:57.243Z,67.60
2018-04-13T18:21:27.080Z,69.10
2018-04-13T18:23:56.979Z,69.00
2018-04-13T18:26:26.051Z,69.00
2018-04-13T18:28:55.119Z,67.30
2018-04-13T18:31:24.994Z,68.80
2018-04-13T18:33:55.207Z,68.80
2018-04-13T18:36:24.288Z,68.70
2018-04-13T18:38:53.359Z,69.40
2018-04-13T18:41:22.488Z,71.60
2018-04-13T18:43:51.600Z,74.50
2018-04-13T18:46:20.702Z,74.50
2018-04-13T18:48:49.775Z,75.40
2018-04-13T18:51:18.917Z,77.40
2018-04-13T18:53:48.340Z,77.90
2018-04-13T18:56:17.567Z,79.30
2018-04-13T18:58:46.655Z,79.80
2018-04-13T19:01:15.765Z,80.40
2018-04-13T19:03:44.847Z,81.60
2018-04-13T19:06:14.475Z,81.50
2018-04-13T19:08:43.618Z,79.80
2018-04-13T19:11:12.879Z,79.80
2018-04-13T19:13:42.251Z,79.20
2018-04-13T19:16:11.365Z,79.60
2018-04-13T19:18:40.447Z,82.30
2018-04-13T19:21:09.557Z,82.00
2018-04-13T19:23:38.668Z,81.80
2018-04-13T19:26:07.911Z,84.10
2018-04-13T19:28:37.757Z,85.40
2018-04-13T19:31:07.671Z,85.60
2018-04-13T19:33:36.788Z,85.50
2018-04-13T19:36:06.048Z,86.70
2018-04-13T19:38:35.162Z,85.70
2018-04-13T19:41:04.292Z,85.50
2018-04-13T19:43:33.379Z,82.90
2018-04-13T19:46:02.486Z,83.00
2018-04-13T19:48:31.572Z,84.50
2018-04-13T19:51:01.451Z,86.30
2018-04-13T19:53:30.527Z,86.30
2018-04-13T19:55:59.639Z,85.90
2018-04-13T19:58:28.813Z,85.30
2018-04-13T20:00:57.933Z,84.80
2018-04-13T20:03:27.116Z,84.30
2018-04-13T20:05:56.200Z,84.20
2018-04-13T20:08:25.306Z,83.60
2018-04-13T20:10:54.463Z,82.40
2018-04-13T20:13:23.547Z,81.90
2018-04-13T20:15:52.626Z,82.20
2018-04-13T20:18:21.733Z,83.70
2018-04-13T20:20:50.843Z,84.90
2018-04-13T20:23:20.001Z,86.40
2018-04-13T20:25:49.067Z,86.00
2018-04-13T20:28:18.146Z,86.20
2018-04-13T20:30:47.288Z,86.50
2018-04-13T20:33:16.401Z,87.20
2018-04-13T20:35:45.577Z,88.10
2018-04-13T20:38:14.734Z,88.70
2018-04-13T20:40:43.848Z,88.10
2018-04-13T20:43:12.958Z,88.00
2018-04-13T20:45:42.103Z,87.70
2018-04-13T20:48:11.204Z,87.00
2018-04-13T20:50:40.293Z,87.10
2018-04-13T20:53:09.408Z,87.90
2018-04-13T20:55:38.544Z,88.00
2018-04-13T20:58:07.651Z,88.20
2018-04-13T21:00:36.726Z,89.40
2018-04-13T21:03:05.824Z,90.00
2018-04-13T21:05:35.686Z,89.40
2018-04-13T21:08:04.903Z,89.40
2018-04-13T21:10:33.986Z,88.00
2018-04-13T21:13:03.068Z,88.30
2018-04-13T21:15:32.921Z,86.70
2018-04-13T21:18:02.028Z,86.70
2018-04-13T21:20:31.145Z,85.60
2018-04-13T21:23:00.255Z,85.10
2018-04-13T21:25:29.364Z,84.70
2018-04-13T21:27:58.695Z,83.90
2018-04-13T21:30:27.804Z,84.90
2018-04-13T21:32:56.887Z,84.90
2018-04-13T21:35:26.758Z,85.20
2018-04-13T21:37:55.865Z,85.20
2018-04-13T21:40:24.946Z,84.40
2018-04-13T21:42:54.023Z,84.80
2018-04-13T21:45:23.141Z,84.00
2018-04-13T21:47:53.065Z,85.00
2018-04-13T21:50:22.149Z,85.00
2018-04-13T21:52:51.248Z,84.90
2018-04-13T21:55:20.322Z,85.90
2018-04-13T21:57:50.315Z,84.90
2018-04-13T22:00:19.403Z,84.80
2018-04-13T22:02:48.572Z,83.70
2018-04-13T22:05:17.665Z,83.80
2018-04-13T22:07:46.804Z,83.80
2018-04-13T22:10:15.949Z,85.00
2018-04-13T22:13:02.692Z,72.70
2018-04-13T22:15:31.840Z,71.30
2018-04-13T22:18:01.678Z,69.20
2018-04-13T22:20:30.848Z,69.20
2018-04-13T22:22:59.923Z,69.20
2018-04-13T22:25:29.007Z,69.10
2018-04-13T22:27:58.111Z,70.10
2018-04-13T22:30:27.980Z,74.80
2018-04-13T22:32:57.128Z,74.80
2018-04-13T22:35:26.235Z,75.10
2018-04-13T22:37:55.432Z,78.10
2018-04-13T22:40:24.539Z,80.00
2018-04-13T22:42:53.636Z,81.10
2018-04-13T22:45:22.707Z,80.90
2018-04-13T22:47:52.616Z,81.40
2018-04-13T22:50:22.489Z,81.10
2018-04-13T22:52:51.599Z,81.10
2018-04-13T22:55:20.701Z,82.40
2018-04-13T22:57:49.804Z,82.40
2018-04-13T23:00:18.879Z,81.90
2018-04-13T23:02:48.419Z,82.30
2018-04-13T23:05:18.292Z,81.40
2018-04-13T23:07:48.139Z,82.00
2018-04-13T23:10:17.250Z,81.30
2018-04-13T23:12:47.052Z,82.20
2018-04-13T23:15:16.207Z,80.90
2018-04-13T23:17:45.251Z,82.30
2018-04-13T23:20:14.362Z,82.30
2018-04-13T23:22:43.544Z,82.80
2018-04-13T23:25:12.640Z,82.30
2018-04-13T23:27:41.744Z,82.90
2018-04-13T23:30:10.849Z,83.00
2018-04-13T23:32:39.948Z,83.50
2018-04-13T23:35:09.782Z,85.00
2018-04-13T23:37:38.968Z,85.00
2018-04-13T23:40:08.080Z,84.50
2018-04-13T23:42:37.182Z,84.90
2018-04-13T23:45:06.257Z,85.00
2018-04-13T23:47:36.148Z,83.60
2018-04-13T23:50:05.292Z,83.50
2018-04-13T23:52:34.468Z,83.50
2018-04-13T23:55:04.309Z,82.70
2018-04-13T23:57:33.407Z,82.70
